createdAt,value
2023-03-26T00:00:51.616Z,2.55
2023-03-26T00:03:18.180Z,2.50
2023-03-26T00:05:45.899Z,2.60
2023-03-26T00:08:12.287Z,2.53
2023-03-26T00:10:40.532Z,2.83
2023-03-26T00:13:07.833Z,2.60
2023-03-26T00:15:36.009Z,2.53
2023-03-26T00:18:02.871Z,2.75
2023-03-26T00:20:30.698Z,2.35
2023-03-26T00:22:57.222Z,2.15
2023-03-26T00:25:23.491Z,2.47
2023-03-26T00:27:50.628Z,2.20
2023-03-26T00:30:17.007Z,2.47
2023-03-26T00:32:43.845Z,2.80
2023-03-26T00:35:20.137Z,2.25
2023-03-26T00:37:46.478Z,2.55
2023-03-26T00:40:13.007Z,2.45
2023-03-26T00:42:39.559Z,2.55
2023-03-26T00:45:07.100Z,2.35
2023-03-26T00:47:34.588Z,2.15
2023-03-26T00:50:00.935Z,2.05
2023-03-26T00:52:27.257Z,2.13
2023-03-26T00:54:53.939Z,2.35
2023-03-26T00:57:32.962Z,1.98
2023-03-26T01:00:01.970Z,2.20
2023-03-26T01:02:28.304Z,1.83
2023-03-26T01:04:58.639Z,1.77
2023-03-26T01:07:26.314Z,1.90
2023-03-26T01:09:52.632Z,1.80
2023-03-26T01:12:22.587Z,1.40
2023-03-26T01:14:54.777Z,1.83
2023-03-26T01:17:22.596Z,1.92
2023-03-26T01:19:58.712Z,1.70
2023-03-26T01:22:26.892Z,1.98
2023-03-26T01:24:54.163Z,1.65
2023-03-26T01:27:29.970Z,1.63
2023-03-26T01:30:21.307Z,1.90
2023-03-26T01:33:14.827Z,1.73
2023-03-26T01:35:56.041Z,1.80
2023-03-26T01:39:06.758Z,2.20
2023-03-26T01:41:46.640Z,1.90
2023-03-26T01:44:40.634Z,1.65
2023-03-26T01:47:08.452Z,1.70
2023-03-26T01:49:34.752Z,1.55
2023-03-26T01:52:01.080Z,1.67
2023-03-26T01:54:31.206Z,1.63
2023-03-26T01:57:20.228Z,1.63
2023-03-26T02:00:12.705Z,1.27
2023-03-26T02:02:57.861Z,1.70
2023-03-26T02:05:28.030Z,1.60
2023-03-26T02:08:02.401Z,1.25
2023-03-26T02:10:31.653Z,1.40
2023-03-26T02:12:59.442Z,1.17
2023-03-26T02:15:25.812Z,1.30
2023-03-26T02:17:52.323Z,1.20
2023-03-26T02:20:19.938Z,0.98
2023-03-26T02:22:47.573Z,1.20
2023-03-26T02:25:19.332Z,1.15
2023-03-26T02:27:51.888Z,1.10
2023-03-26T02:30:24.674Z,1.23
2023-03-26T02:32:52.231Z,1.00
2023-03-26T02:35:18.663Z,1.50
2023-03-26T02:37:45.093Z,1.30
2023-03-26T02:40:11.402Z,1.45
2023-03-26T02:42:38.589Z,1.40
2023-03-26T02:47:32.041Z,1.40
2023-03-26T02:49:58.350Z,1.52
2023-03-26T02:52:24.750Z,1.67
2023-03-26T02:54:51.028Z,1.73
2023-03-26T02:57:17.330Z,1.77
2023-03-26T02:59:43.626Z,1.77
2023-03-26T03:02:09.970Z,1.95
2023-03-26T03:04:36.308Z,1.98
2023-03-26T03:07:02.605Z,1.63
2023-03-26T03:09:28.929Z,1.60
2023-03-26T03:11:55.204Z,1.75
2023-03-26T03:14:21.528Z,1.98
2023-03-26T03:16:47.838Z,2.00
2023-03-26T03:19:14.459Z,1.70
2023-03-26T03:21:41.646Z,1.45
2023-03-26T03:26:34.864Z,1.77
2023-03-26T03:29:01.158Z,2.22
2023-03-26T03:31:27.540Z,1.77
2023-03-26T03:33:54.001Z,2.00
2023-03-26T03:36:22.116Z,1.80
2023-03-26T03:38:49.232Z,1.73
2023-03-26T03:41:15.790Z,1.92
2023-03-26T03:43:42.112Z,2.00
2023-03-26T03:46:08.581Z,1.52
2023-03-26T03:48:34.945Z,2.00
2023-03-26T03:51:01.245Z,1.90
2023-03-26T03:53:27.534Z,1.85
2023-03-26T03:55:55.478Z,1.88
2023-03-26T03:58:24.302Z,1.80
2023-03-26T04:00:52.092Z,2.60
2023-03-26T04:03:19.967Z,1.90
2023-03-26T04:06:00.179Z,2.20
2023-03-26T04:08:26.470Z,1.85
2023-03-26T04:10:52.808Z,2.03
2023-03-26T04:13:19.103Z,2.50
2023-03-26T04:15:45.436Z,2.38
2023-03-26T04:18:11.765Z,2.38
2023-03-26T04:20:39.700Z,2.65
2023-03-26T04:23:06.152Z,2.20
2023-03-26T04:25:32.463Z,2.28
2023-03-26T04:28:02.746Z,2.10
2023-03-26T04:30:29.085Z,2.10
2023-03-26T04:32:55.559Z,2.10
2023-03-26T04:35:21.964Z,1.83
2023-03-26T04:37:48.492Z,2.30
2023-03-26T04:40:20.332Z,2.60
2023-03-26T04:42:46.668Z,2.33
2023-03-26T04:45:18.416Z,2.40
2023-03-26T04:47:44.777Z,2.20
2023-03-26T04:50:11.722Z,2.25
2023-03-26T04:52:38.507Z,2.30
2023-03-26T04:55:12.750Z,1.98
2023-03-26T04:57:44.165Z,2.33
2023-03-26T05:00:14.944Z,2.10
2023-03-26T05:02:42.258Z,2.40
2023-03-26T05:05:09.312Z,2.05
2023-03-26T05:07:35.930Z,2.25
2023-03-26T05:10:02.810Z,1.95
2023-03-26T05:12:29.868Z,2.25
2023-03-26T05:17:24.461Z,2.13
2023-03-26T05:19:51.193Z,1.83
2023-03-26T05:22:18.594Z,1.80
2023-03-26T05:24:44.892Z,1.83
2023-03-26T05:27:17.280Z,1.92
2023-03-26T05:29:51.964Z,2.22
2023-03-26T05:32:20.398Z,1.90
2023-03-26T05:34:46.687Z,2.20
2023-03-26T05:37:12.968Z,2.13
2023-03-26T05:39:42.109Z,2.03
2023-03-26T05:42:08.404Z,1.88
2023-03-26T05:44:37.511Z,2.53
2023-03-26T05:47:03.851Z,2.00
2023-03-26T05:49:30.140Z,1.90
2023-03-26T05:51:56.451Z,2.42
2023-03-26T05:54:22.750Z,1.90
2023-03-26T05:56:49.056Z,2.20
2023-03-26T05:59:15.563Z,2.38
2023-03-26T06:01:41.881Z,2.00
2023-03-26T06:04:08.543Z,2.22
2023-03-26T06:06:34.942Z,1.88
2023-03-26T06:09:02.835Z,1.73
2023-03-26T06:11:30.371Z,2.20
2023-03-26T06:13:56.688Z,2.30
2023-03-26T06:16:27.181Z,2.13
2023-03-26T06:18:56.428Z,1.92
2023-03-26T06:21:27.265Z,2.85
2023-03-26T06:23:54.236Z,2.22
2023-03-26T06:26:20.594Z,1.30
2023-03-26T06:28:47.175Z,1.23
2023-03-26T06:31:13.927Z,1.50
2023-03-26T06:33:40.326Z,1.17
2023-03-26T06:36:07.121Z,1.20
2023-03-26T06:38:33.629Z,1.42
2023-03-26T06:41:06.993Z,1.30
2023-03-26T06:46:02.992Z,1.25
2023-03-26T06:48:29.442Z,1.30
2023-03-26T06:50:55.974Z,1.60
2023-03-26T06:53:22.531Z,1.63
2023-03-26T06:55:48.895Z,1.50
2023-03-26T06:58:15.224Z,1.50
2023-03-26T07:00:41.539Z,1.08
2023-03-26T07:03:07.965Z,1.52
2023-03-26T07:05:34.242Z,1.23
2023-03-26T07:08:00.624Z,1.50
2023-03-26T07:10:26.939Z,1.40
2023-03-26T07:12:53.517Z,1.55
2023-03-26T07:15:19.829Z,1.60
2023-03-26T07:17:46.170Z,1.92
2023-03-26T07:20:12.842Z,1.65
2023-03-26T07:22:39.571Z,1.73
2023-03-26T07:25:06.783Z,1.70
2023-03-26T07:27:54.301Z,1.95
2023-03-26T07:30:46.390Z,1.80
2023-03-26T07:33:28.359Z,1.63
2023-03-26T07:36:16.566Z,1.80
2023-03-26T07:38:56.971Z,1.60
2023-03-26T07:41:48.075Z,1.83
2023-03-26T07:44:33.636Z,1.70
2023-03-26T07:47:02.724Z,1.60
2023-03-26T07:49:29.275Z,1.40
2023-03-26T07:51:55.801Z,1.52
2023-03-26T07:54:22.371Z,1.40
2023-03-26T07:57:20.121Z,1.73
2023-03-26T07:59:55.960Z,1.27
2023-03-26T08:02:39.069Z,1.48
2023-03-26T08:05:27.430Z,1.85
2023-03-26T08:08:12.020Z,1.95
2023-03-26T08:10:38.285Z,2.70
2023-03-26T08:13:33.400Z,1.63
2023-03-26T08:16:08.548Z,1.70
2023-03-26T08:18:47.710Z,1.52
2023-03-26T08:21:14.004Z,1.67
2023-03-26T08:24:04.334Z,2.92
2023-03-26T08:26:42.551Z,1.40
2023-03-26T08:29:14.000Z,1.77
2023-03-26T08:31:42.395Z,2.17
2023-03-26T08:34:12.694Z,1.48
2023-03-26T08:36:39.508Z,1.67
2023-03-26T08:39:06.598Z,1.50
2023-03-26T08:44:23.691Z,1.80
2023-03-26T08:47:08.989Z,1.75
2023-03-26T08:52:40.404Z,2.13
2023-03-26T08:55:29.538Z,1.63
2023-03-26T08:58:11.051Z,1.90
2023-03-26T09:00:49.514Z,2.88
2023-03-26T09:03:37.785Z,2.10
2023-03-26T09:06:24.822Z,1.85
2023-03-26T09:09:19.271Z,1.88
2023-03-26T09:12:07.432Z,1.85
2023-03-26T09:14:55.591Z,2.17
2023-03-26T09:17:56.655Z,2.40
2023-03-26T09:20:53.502Z,2.40
2023-03-26T09:23:38.193Z,2.28
2023-03-26T09:26:21.086Z,2.15
2023-03-26T09:29:10.557Z,2.25
2023-03-26T09:32:02.002Z,2.40
2023-03-26T09:34:29.695Z,2.78
2023-03-26T09:37:56.844Z,2.40
2023-03-26T09:40:43.281Z,2.25
2023-03-26T09:43:15.331Z,3.42
2023-03-26T09:46:25.076Z,2.42
2023-03-26T09:49:09.737Z,2.28
2023-03-26T09:52:02.601Z,2.15
2023-03-26T09:54:57.015Z,3.05
2023-03-26T09:57:40.701Z,4.45
2023-03-26T10:00:33.390Z,3.10
2023-03-26T10:03:33.698Z,2.38
2023-03-26T10:06:38.228Z,1.80
2023-03-26T10:09:18.279Z,3.13
2023-03-26T10:12:24.273Z,1.80
2023-03-26T10:15:10.941Z,1.80
2023-03-26T10:17:57.280Z,1.92
2023-03-26T10:20:49.032Z,1.98
2023-03-26T10:23:34.246Z,1.73
2023-03-26T10:26:26.642Z,2.53
2023-03-26T10:29:20.741Z,2.83
2023-03-26T10:32:08.901Z,2.08
2023-03-26T10:34:53.514Z,1.70
2023-03-26T10:37:34.865Z,1.90
2023-03-26T10:40:07.005Z,1.70
2023-03-26T10:43:12.599Z,1.90
2023-03-26T10:46:16.888Z,2.53
2023-03-26T10:49:01.261Z,2.28
2023-03-26T10:51:55.011Z,1.98
2023-03-26T10:55:02.012Z,1.95
2023-03-26T10:57:37.238Z,2.25
2023-03-26T11:00:16.533Z,2.13
2023-03-26T11:06:20.203Z,2.25
2023-03-26T11:09:06.529Z,2.50
2023-03-26T11:11:42.496Z,3.00
2023-03-26T11:14:34.393Z,3.22
2023-03-26T11:17:39.143Z,2.65
2023-03-26T11:20:29.611Z,2.97
2023-03-26T11:23:16.945Z,2.70
2023-03-26T11:26:13.971Z,3.08
2023-03-26T11:29:03.818Z,2.67
2023-03-26T11:31:57.037Z,2.65
2023-03-26T11:34:32.739Z,3.65
2023-03-26T11:37:04.162Z,3.15
2023-03-26T11:39:42.882Z,2.70
2023-03-26T11:42:13.962Z,2.72
2023-03-26T11:44:53.120Z,2.65
2023-03-26T11:47:24.711Z,2.80
2023-03-26T11:49:54.928Z,2.30
2023-03-26T11:52:21.232Z,2.50
2023-03-26T11:54:47.523Z,2.50
2023-03-26T11:57:21.596Z,2.40
2023-03-26T11:59:56.511Z,2.60
2023-03-26T12:02:28.540Z,2.30
2023-03-26T12:05:12.284Z,2.60
2023-03-26T12:07:46.112Z,2.33
2023-03-26T12:10:40.897Z,2.33
2023-03-26T12:13:29.124Z,2.28
2023-03-26T12:16:05.617Z,2.42
2023-03-26T12:18:32.128Z,2.90
2023-03-26T12:21:11.490Z,1.83
2023-03-26T12:23:43.814Z,2.47
2023-03-26T12:26:19.531Z,2.05
2023-03-26T12:28:48.590Z,2.33
2023-03-26T12:31:15.622Z,2.13
2023-03-26T12:36:17.245Z,2.08
2023-03-26T12:38:43.652Z,2.13
2023-03-26T12:43:51.321Z,2.42
2023-03-26T12:44:55.724Z,2.67
2023-03-26T12:48:01.203Z,1.95
2023-03-26T12:50:14.045Z,2.03
2023-03-26T12:53:02.770Z,1.90
2023-03-26T12:55:35.280Z,2.20
2023-03-26T12:58:22.925Z,2.15
2023-03-26T13:01:11.006Z,2.10
2023-03-26T13:03:44.705Z,2.20
2023-03-26T13:06:20.043Z,2.20
2023-03-26T13:08:49.346Z,2.00
2023-03-26T13:11:29.795Z,1.70
2023-03-26T13:14:11.358Z,2.45
2023-03-26T13:16:49.977Z,1.80
2023-03-26T13:19:41.257Z,2.42
2023-03-26T13:22:29.390Z,2.00
2023-03-26T13:25:16.150Z,1.70
2023-03-26T13:27:59.705Z,1.95
2023-03-26T13:30:41.274Z,1.98
2023-03-26T13:33:22.151Z,2.03
2023-03-26T13:36:10.260Z,2.00
2023-03-26T13:39:01.952Z,2.00
2023-03-26T13:42:05.469Z,1.80
2023-03-26T13:44:43.093Z,2.80
2023-03-26T13:47:27.364Z,2.00
2023-03-26T13:50:24.780Z,2.00
2023-03-26T13:53:02.943Z,1.60
2023-03-26T13:55:34.846Z,1.52
2023-03-26T13:58:11.577Z,1.77
2023-03-26T14:00:56.980Z,2.30
2023-03-26T14:03:45.396Z,1.80
2023-03-26T14:06:35.048Z,1.77
2023-03-26T14:09:30.370Z,1.92
2023-03-26T14:11:56.631Z,1.83
2023-03-26T14:14:38.871Z,2.05
2023-03-26T14:17:18.295Z,2.25
2023-03-26T14:19:49.557Z,1.50
2023-03-26T14:22:33.977Z,1.60
2023-03-26T14:25:25.007Z,3.00
2023-03-26T14:28:06.416Z,3.03
2023-03-26T14:30:59.591Z,1.30
2023-03-26T14:33:53.604Z,1.90
2023-03-26T14:36:40.364Z,1.40
2023-03-26T14:39:27.639Z,1.85
2023-03-26T14:42:02.900Z,1.38
2023-03-26T14:44:48.373Z,1.23
2023-03-26T14:47:24.219Z,1.63
2023-03-26T14:50:02.789Z,1.20
2023-03-26T14:52:45.950Z,1.38
2023-03-26T14:55:27.186Z,1.70
2023-03-26T14:57:56.478Z,1.50
2023-03-26T15:00:47.742Z,1.70
2023-03-26T15:06:40.693Z,2.20
2023-03-26T15:09:25.675Z,2.45
2023-03-26T15:12:12.606Z,1.77
2023-03-26T15:14:56.316Z,1.88
2023-03-26T15:17:56.736Z,3.70
2023-03-26T15:20:41.630Z,2.13
2023-03-26T15:23:26.860Z,2.95
2023-03-26T15:28:50.382Z,1.30
2023-03-26T15:31:31.893Z,1.52
2023-03-26T15:34:04.089Z,1.52
2023-03-26T15:36:48.219Z,3.30
2023-03-26T15:39:59.366Z,2.70
2023-03-26T15:42:51.374Z,4.20
2023-03-26T15:45:38.099Z,1.83
2023-03-26T15:48:11.378Z,2.38
2023-03-26T15:51:15.810Z,1.90
2023-03-26T15:54:14.439Z,2.30
2023-03-26T15:57:02.608Z,1.90
2023-03-26T15:59:47.226Z,2.75
2023-03-26T16:02:50.871Z,1.88
2023-03-26T16:05:20.334Z,1.80
2023-03-26T16:07:58.726Z,1.80
2023-03-26T16:10:54.589Z,2.15
2023-03-26T16:13:21.028Z,1.90
2023-03-26T16:16:19.607Z,2.00
2023-03-26T16:19:20.518Z,1.50
2023-03-26T16:22:00.040Z,1.90
2023-03-26T16:24:29.184Z,2.00
2023-03-26T16:27:03.695Z,1.80
2023-03-26T16:29:30.230Z,2.00
2023-03-26T16:32:15.344Z,2.10
2023-03-26T16:34:52.079Z,1.80
2023-03-26T16:37:37.736Z,2.22
2023-03-26T16:40:15.974Z,2.33
2023-03-26T16:43:10.398Z,2.10
2023-03-26T16:46:06.815Z,1.80
2023-03-26T16:49:03.412Z,1.80
2023-03-26T16:51:38.747Z,1.67
2023-03-26T16:54:32.525Z,1.75
2023-03-26T16:57:35.456Z,1.80
2023-03-26T17:00:30.018Z,2.30
2023-03-26T17:03:15.413Z,1.80
2023-03-26T17:05:53.713Z,1.80
2023-03-26T17:08:37.097Z,1.80
2023-03-26T17:11:19.485Z,1.73
2023-03-26T17:13:59.505Z,1.88
2023-03-26T17:16:34.130Z,2.38
2023-03-26T17:19:25.306Z,2.30
2023-03-26T17:22:05.830Z,1.65
2023-03-26T17:24:59.424Z,1.60
2023-03-26T17:27:31.426Z,1.55
2023-03-26T17:30:33.136Z,2.75
2023-03-26T17:33:25.539Z,4.15
2023-03-26T17:36:11.790Z,3.42
2023-03-26T17:38:38.057Z,3.30
2023-03-26T17:41:05.833Z,5.25
2023-03-26T17:43:39.627Z,3.10
2023-03-26T17:46:24.876Z,3.80
2023-03-26T17:49:13.243Z,3.58
2023-03-26T17:51:55.229Z,3.22
2023-03-26T17:54:30.661Z,2.50
2023-03-26T17:57:02.660Z,2.00
2023-03-26T17:59:29.157Z,3.63
2023-03-26T18:01:59.065Z,3.22
2023-03-26T18:04:32.183Z,3.03
2023-03-26T18:07:17.232Z,3.63
2023-03-26T18:10:14.412Z,4.82
2023-03-26T18:13:02.753Z,3.80
2023-03-26T18:15:28.982Z,3.30
2023-03-26T18:18:07.332Z,2.50
2023-03-26T18:20:36.593Z,2.83
2023-03-26T18:23:10.039Z,3.22
2023-03-26T18:25:36.718Z,3.00
2023-03-26T18:28:04.353Z,2.67
2023-03-26T18:30:30.647Z,2.60
2023-03-26T18:33:02.441Z,2.50
2023-03-26T18:35:44.982Z,2.47
2023-03-26T18:38:16.177Z,2.80
2023-03-26T18:40:44.959Z,3.80
2023-03-26T18:43:28.663Z,3.65
2023-03-26T18:46:00.805Z,6.13
2023-03-26T18:48:28.611Z,8.68
2023-03-26T18:51:05.104Z,3.40
2023-03-26T18:53:39.043Z,3.53
2023-03-26T18:58:51.424Z,3.88
2023-03-26T19:01:25.453Z,4.70
2023-03-26T19:03:54.069Z,4.43
2023-03-26T19:06:21.081Z,4.10
2023-03-26T19:08:50.586Z,2.97
2023-03-26T19:11:17.760Z,2.58
2023-03-26T19:13:49.543Z,2.45
2023-03-26T19:16:25.658Z,2.30
2023-03-26T19:18:52.384Z,2.72
2023-03-26T19:21:20.652Z,2.15
2023-03-26T19:23:47.587Z,3.63
2023-03-26T19:26:15.015Z,2.50
2023-03-26T19:28:56.029Z,2.78
2023-03-26T19:31:31.990Z,2.83
2023-03-26T19:34:13.669Z,2.60
2023-03-26T19:37:00.307Z,2.95
2023-03-26T19:39:44.695Z,2.40
2023-03-26T19:42:17.697Z,2.50
2023-03-26T19:44:44.539Z,2.60
2023-03-26T19:47:31.906Z,2.55
2023-03-26T19:50:24.942Z,2.30
2023-03-26T19:53:15.310Z,2.33
2023-03-26T19:55:53.784Z,2.63
2023-03-26T19:58:20.180Z,1.98
2023-03-26T20:00:46.532Z,2.03
2023-03-26T20:03:13.602Z,2.63
2023-03-26T20:05:40.066Z,2.10
2023-03-26T20:08:15.301Z,2.20
2023-03-26T20:10:43.012Z,2.35
2023-03-26T20:13:17.263Z,2.05
2023-03-26T20:16:05.134Z,2.30
2023-03-26T20:18:32.581Z,2.25
2023-03-26T20:20:59.019Z,2.50
2023-03-26T20:23:25.466Z,3.00
2023-03-26T20:25:52.202Z,2.40
2023-03-26T20:28:18.977Z,2.30
2023-03-26T20:30:49.684Z,2.40
2023-03-26T20:33:22.012Z,2.95
2023-03-26T20:35:48.359Z,2.75
2023-03-26T20:38:14.695Z,2.80
2023-03-26T20:40:41.096Z,3.40
2023-03-26T20:43:12.657Z,2.50
2023-03-26T20:45:39.443Z,2.38
2023-03-26T20:48:05.854Z,1.92
2023-03-26T20:50:35.719Z,2.13
2023-03-26T20:53:02.207Z,2.25
2023-03-26T20:55:28.609Z,3.08
2023-03-26T20:57:54.904Z,2.33
2023-03-26T21:00:21.307Z,3.15
2023-03-26T21:02:51.841Z,3.17
2023-03-26T21:05:18.689Z,2.30
2023-03-26T21:07:45.463Z,2.72
2023-03-26T21:10:13.536Z,3.15
2023-03-26T21:13:05.481Z,3.00
2023-03-26T21:15:32.422Z,2.10
2023-03-26T21:17:59.130Z,2.28
2023-03-26T21:20:26.569Z,2.10
2023-03-26T21:25:31.786Z,1.95
2023-03-26T21:28:29.062Z,2.58
2023-03-26T21:31:02.282Z,1.90
2023-03-26T21:33:28.597Z,2.50
2023-03-26T21:35:55.039Z,1.85
2023-03-26T21:38:22.636Z,1.95
2023-03-26T21:43:20.878Z,3.30
2023-03-26T21:45:48.442Z,3.00
2023-03-26T21:48:18.147Z,2.55
2023-03-26T21:50:44.719Z,2.20
2023-03-26T21:53:12.827Z,1.95
2023-03-26T21:55:47.971Z,2.40
2023-03-26T21:58:43.309Z,1.80
2023-03-26T22:01:41.910Z,2.40
2023-03-26T22:04:38.985Z,3.08
2023-03-26T22:07:20.395Z,2.95
2023-03-26T22:09:47.126Z,2.45
2023-03-26T22:12:13.451Z,2.30
2023-03-26T22:14:39.724Z,1.98
2023-03-26T22:17:06.623Z,2.20
2023-03-26T22:19:33.038Z,2.40
2023-03-26T22:21:59.351Z,2.45
2023-03-26T22:24:25.750Z,2.55
2023-03-26T22:26:52.031Z,1.80
2023-03-26T22:29:18.366Z,2.13
2023-03-26T22:31:44.708Z,2.10
2023-03-26T22:34:11.040Z,2.45
2023-03-26T22:36:39.027Z,2.22
2023-03-26T22:39:06.682Z,2.13
2023-03-26T22:41:32.944Z,3.05
2023-03-26T22:44:01.465Z,2.30
2023-03-26T22:46:30.024Z,1.98
2023-03-26T22:48:56.717Z,2.22
2023-03-26T22:51:23.231Z,2.60
2023-03-26T22:53:49.542Z,1.90
2023-03-26T22:56:16.228Z,1.83
2023-03-26T22:58:42.587Z,2.15
2023-03-26T23:01:13.018Z,2.13
2023-03-26T23:03:39.388Z,2.28
2023-03-26T23:06:08.347Z,2.00
2023-03-26T23:08:35.598Z,1.95
2023-03-26T23:13:28.129Z,2.17
2023-03-26T23:15:55.565Z,2.45
2023-03-26T23:18:22.666Z,2.17
2023-03-26T23:20:50.917Z,1.88
2023-03-26T23:23:17.214Z,2.20
2023-03-26T23:25:44.738Z,2.17
2023-03-26T23:28:11.036Z,2.47
2023-03-26T23:30:37.355Z,1.80
2023-03-26T23:33:03.790Z,1.58
2023-03-26T23:35:30.185Z,1.73
2023-03-26T23:37:56.481Z,1.60
2023-03-26T23:40:22.783Z,1.58
2023-03-26T23:42:49.110Z,2.47
2023-03-26T23:45:15.456Z,1.73
2023-03-26T23:47:41.738Z,2.05
2023-03-26T23:50:08.502Z,2.15
2023-03-26T23:52:35.051Z,1.60
2023-03-26T23:55:01.392Z,2.17
2023-03-26T23:57:28.071Z,1.85
2023-03-26T23:59:54.600Z,1.63
